Time;durP1;ratioP1;P1;durP2;ratioP2;P2;SDS_P1;SDS_P2;PMS_P1;PMS_P2;Temp;Humidity;BMP_temperature;BMP_pressure;BME280_temperature;BME280_humidity;BME280_pressure;Samples;Min_cycle;Max_cycle;Signal;HPM_P1;HPM_P2
2022/12/10 00:00:13;;;;;;;;;;;-0.40;99.90;;;;;;5049797;28;19913;-61
2022/12/10 00:02:38;;;;;;;;;;;-0.40;99.90;;;;;;5047089;28;19913;-61
2022/12/10 00:05:04;;;;;;;;;;;-0.40;99.90;;;;;;5047345;28;19921;-60
2022/12/10 00:07:29;;;;;;;;;;;-0.40;99.90;;;;;;5051262;28;19917;-60
2022/12/10 00:09:55;;;;;;;;;;;-0.40;99.90;;;;;;5050040;28;20271;-60
2022/12/10 00:12:20;;;;;;;;;;;-0.40;99.90;;;;;;5056268;28;19921;-59
2022/12/10 00:14:46;;;;;;;;;;;-0.50;99.90;;;;;;5056103;28;19936;-62
2022/12/10 00:17:11;;;;;;;;;;;-0.60;99.90;;;;;;5053052;28;19968;-62
2022/12/10 00:19:37;;;;;;;;;;;-0.60;99.90;;;;;;5052690;28;19951;-59
2022/12/10 00:22:02;;;;;;;;;;;-0.60;99.90;;;;;;5052054;28;19924;-62
2022/12/10 00:24:27;;;;;;;;;;;-0.60;99.90;;;;;;5054266;28;19920;-62
2022/12/10 00:26:53;;;;;;;;;;;-0.70;99.90;;;;;;5053946;28;20623;-60
2022/12/10 00:29:18;;;;;;;;;;;-0.80;99.90;;;;;;5050914;28;20344;-62
2022/12/10 00:31:44;;;;;;;;;;;-0.90;99.90;;;;;;5046263;28;20405;-62
2022/12/10 00:34:11;;;;;;;;;;;-1.00;99.90;;;;;;5055262;28;20262;-62
2022/12/10 00:36:42;;;;;;;;;;;-1.00;99.90;;;;;;5053372;28;19909;-63
2022/12/10 00:39:08;;;;;;;;;;;-0.90;99.90;;;;;;5046567;28;19967;-62
2022/12/10 00:41:34;;;;;;;;;;;-0.90;99.90;;;;;;5059119;28;19916;-60
2022/12/10 00:43:59;;;;;;;;;;;-0.90;99.90;;;;;;5054678;28;19913;-60
2022/12/10 00:46:25;;;;;;;;;;;-0.90;99.90;;;;;;5050656;28;19913;-61
2022/12/10 00:48:51;;;;;;;;;;;-0.90;99.90;;;;;;5051563;28;19916;-60
2022/12/10 00:51:18;;;;;;;;;;;-0.90;99.90;;;;;;5052087;28;19920;-61
2022/12/10 00:53:44;;;;;;;;;;;-0.90;99.90;;;;;;5054451;28;19924;-58
2022/12/10 00:56:11;;;;;;;;;;;-1.00;99.90;;;;;;5055230;28;20381;-61
2022/12/10 00:58:37;;;;;;;;;;;-1.00;99.90;;;;;;5054776;28;19913;-61
2022/12/10 01:01:21;;;;;;;;;;;-1.10;99.90;;;;;;5044841;28;20310;-62
2022/12/10 01:03:48;;;;;;;;;;;-1.10;99.90;;;;;;5048921;28;19913;-62
2022/12/10 01:06:13;;;;;;;;;;;-1.20;99.90;;;;;;5053009;28;20389;-60
2022/12/10 01:08:39;;;;;;;;;;;-1.20;99.90;;;;;;5047742;28;19994;-61
2022/12/10 01:11:05;;;;;;;;;;;-1.20;99.90;;;;;;5041622;28;20428;-62
2022/12/10 01:13:30;;;;;;;;;;;-1.20;99.90;;;;;;5052769;28;19927;-59
2022/12/10 01:15:56;;;;;;;;;;;-1.20;99.90;;;;;;5052145;28;19916;-59
2022/12/10 01:18:21;;;;;;;;;;;-1.20;99.90;;;;;;5049562;28;19913;-60
2022/12/10 01:20:47;;;;;;;;;;;-1.10;99.90;;;;;;5058363;28;19909;-61
2022/12/10 01:23:12;;;;;;;;;;;-1.10;99.90;;;;;;5053173;28;19913;-62
2022/12/10 01:25:37;;;;;;;;;;;-1.00;99.90;;;;;;5057698;28;20004;-62
2022/12/10 01:28:03;;;;;;;;;;;-0.90;99.90;;;;;;5051632;28;19916;-61
2022/12/10 01:30:28;;;;;;;;;;;-0.90;99.90;;;;;;5047636;28;19917;-61
2022/12/10 01:32:54;;;;;;;;;;;-0.80;99.90;;;;;;5051082;28;19952;-60
2022/12/10 01:35:19;;;;;;;;;;;-0.80;99.90;;;;;;5051214;28;19913;-61
2022/12/10 01:37:44;;;;;;;;;;;-0.90;99.90;;;;;;5050791;28;19913;-60
2022/12/10 01:40:10;;;;;;;;;;;-0.90;99.90;;;;;;5050742;28;19917;-60
2022/12/10 01:42:36;;;;;;;;;;;-0.90;99.90;;;;;;5050839;28;19917;-60
2022/12/10 01:45:04;;;;;;;;;;;-1.00;99.90;;;;;;5052200;28;19941;-61
2022/12/10 01:47:30;;;;;;;;;;;-1.00;99.90;;;;;;5047164;28;19995;-59
2022/12/10 01:49:57;;;;;;;;;;;-1.00;99.90;;;;;;5050303;28;19979;-62
2022/12/10 01:52:22;;;;;;;;;;;-1.00;99.90;;;;;;5050941;28;19920;-62
2022/12/10 01:54:48;;;;;;;;;;;-1.10;99.90;;;;;;5050365;28;19913;-61
2022/12/10 01:57:16;;;;;;;;;;;-1.10;99.90;;;;;;5050415;28;19959;-62
2022/12/10 01:59:43;;;;;;;;;;;-1.20;99.90;;;;;;5050868;28;19917;-62
2022/12/10 02:02:11;;;;;;;;;;;-1.30;99.90;;;;;;5050986;28;19913;-61
2022/12/10 02:05:09;;;;;;;;;;;-1.40;99.90;;;;;;5050979;28;19920;-61
2022/12/10 02:07:53;;;;;;;;;;;-1.30;99.90;;;;;;5017031;28;19931;-61
2022/12/10 02:10:37;;;;;;;;;;;-1.30;99.90;;;;;;5045869;28;20302;-61
2022/12/10 02:13:05;;;;;;;;;;;-1.30;99.90;;;;;;5051252;28;19943;-60
2022/12/10 02:15:32;;;;;;;;;;;-1.30;99.90;;;;;;5051831;28;19952;-60
2022/12/10 02:18:02;;;;;;;;;;;-1.40;99.90;;;;;;5051707;28;19909;-59
2022/12/10 02:20:28;;;;;;;;;;;-1.30;99.90;;;;;;5050954;28;20618;-62
2022/12/10 02:22:57;;;;;;;;;;;-1.40;99.90;;;;;;5050057;28;19913;-61
2022/12/10 02:25:24;;;;;;;;;;;-1.40;99.90;;;;;;5051165;28;20374;-61
2022/12/10 02:27:59;;;;;;;;;;;-1.40;99.90;;;;;;5051239;28;19924;-61
2022/12/10 02:30:26;;;;;;;;;;;-1.40;99.90;;;;;;5050530;28;20373;-61
2022/12/10 02:32:51;;;;;;;;;;;-1.40;99.90;;;;;;5051365;28;19923;-61
2022/12/10 02:35:20;;;;;;;;;;;-1.50;99.90;;;;;;5049962;28;19913;-61
2022/12/10 02:37:48;;;;;;;;;;;-1.40;99.90;;;;;;5049457;28;19958;-61
2022/12/10 02:40:17;;;;;;;;;;;-1.50;99.90;;;;;;5050164;28;19959;-62
2022/12/10 02:42:44;;;;;;;;;;;-1.50;99.90;;;;;;5050479;28;19920;-60
2022/12/10 02:45:10;;;;;;;;;;;-1.50;99.90;;;;;;5049611;28;19916;-61
2022/12/10 02:47:36;;;;;;;;;;;-1.50;99.90;;;;;;5049817;28;19944;-57
2022/12/10 02:50:02;;;;;;;;;;;-1.40;99.90;;;;;;5048970;28;19948;-58
2022/12/10 02:52:27;;;;;;;;;;;-1.40;99.90;;;;;;5049419;28;19967;-60
2022/12/10 02:54:53;;;;;;;;;;;-1.50;99.90;;;;;;5050580;28;19912;-60
2022/12/10 02:57:22;;;;;;;;;;;-1.50;99.90;;;;;;5050973;28;19908;-60
2022/12/10 02:59:47;;;;;;;;;;;-1.50;99.90;;;;;;5049677;28;20294;-61
2022/12/10 03:02:16;;;;;;;;;;;-1.50;99.90;;;;;;5049586;28;19917;-62
2022/12/10 03:04:54;;;;;;;;;;;-1.50;99.90;;;;;;5049117;28;20420;-62
2022/12/10 03:07:27;;;;;;;;;;;-1.40;99.90;;;;;;5049429;28;20286;-60
2022/12/10 03:09:58;;;;;;;;;;;-1.40;99.90;;;;;;5052729;28;19995;-59
2022/12/10 03:12:27;;;;;;;;;;;-1.50;99.90;;;;;;5049399;28;20337;-59
2022/12/10 03:14:57;;;;;;;;;;;-1.50;99.90;;;;;;5050920;28;19913;-61
2022/12/10 03:17:23;;;;;;;;;;;-1.40;99.90;;;;;;5053559;28;19913;-59
2022/12/10 03:19:49;;;;;;;;;;;-1.30;99.90;;;;;;5053317;28;20297;-59
2022/12/10 03:22:16;;;;;;;;;;;-1.20;99.90;;;;;;5052496;28;19921;-61
2022/12/10 03:24:42;;;;;;;;;;;-1.20;99.90;;;;;;5054724;28;19932;-60
2022/12/10 03:27:09;;;;;;;;;;;-1.00;99.90;;;;;;5053522;28;20366;-60
2022/12/10 03:29:37;;;;;;;;;;;-1.00;99.90;;;;;;5052499;28;20271;-61
2022/12/10 03:32:02;;;;;;;;;;;-1.00;99.90;;;;;;5052241;28;19919;-61
2022/12/10 03:34:28;;;;;;;;;;;-1.00;99.90;;;;;;5052628;28;19999;-60
2022/12/10 03:36:54;;;;;;;;;;;-0.90;99.90;;;;;;5052648;28;19967;-59
2022/12/10 03:39:19;;;;;;;;;;;-0.80;99.90;;;;;;5052973;28;19909;-58
2022/12/10 03:41:45;;;;;;;;;;;-0.70;99.90;;;;;;5053568;28;19916;-57
2022/12/10 03:44:10;;;;;;;;;;;-0.70;99.90;;;;;;5052349;28;19913;-58
2022/12/10 03:46:36;;;;;;;;;;;-0.70;99.90;;;;;;5047649;28;20382;-59
2022/12/10 03:49:01;;;;;;;;;;;-0.80;99.90;;;;;;5053586;28;19913;-60
2022/12/10 03:51:29;;;;;;;;;;;-0.80;99.90;;;;;;5052376;28;20211;-59
2022/12/10 03:53:54;;;;;;;;;;;-0.80;99.90;;;;;;5052872;28;19915;-62
2022/12/10 03:56:20;;;;;;;;;;;-0.70;99.90;;;;;;5054067;28;19913;-60
2022/12/10 03:58:46;;;;;;;;;;;-0.60;99.90;;;;;;5052496;28;19909;-61
2022/12/10 04:01:12;;;;;;;;;;;-0.50;99.90;;;;;;5053328;28;19983;-60
2022/12/10 04:03:38;;;;;;;;;;;-0.60;99.90;;;;;;5052493;28;19913;-60
2022/12/10 04:06:05;;;;;;;;;;;-0.50;99.90;;;;;;5052800;28;19913;-61
2022/12/10 04:08:30;;;;;;;;;;;-0.40;99.90;;;;;;5053972;28;19909;-58
2022/12/10 04:11:01;;;;;;;;;;;-0.30;99.90;;;;;;5052505;28;19954;-60
2022/12/10 04:16:29;;;;;;;;;;;-0.30;99.90;;;;;;5050909;28;19920;-60
2022/12/10 04:18:56;;;;;;;;;;;-0.20;99.90;;;;;;5053165;28;19955;-61
2022/12/10 04:26:51;;;;;;;;;;;-0.30;99.90;;;;;;5053644;28;19927;-61
2022/12/10 04:29:18;;;;;;;;;;;-0.30;99.90;;;;;;5052196;28;19913;-60
2022/12/10 04:31:43;;;;;;;;;;;-0.20;99.90;;;;;;5049375;28;20306;-58
2022/12/10 04:34:09;;;;;;;;;;;-0.20;99.90;;;;;;5052022;28;19920;-59
2022/12/10 04:36:34;;;;;;;;;;;-0.10;99.90;;;;;;5041119;28;19971;-61
2022/12/10 04:39:00;;;;;;;;;;;-0.10;99.90;;;;;;5046704;28;20003;-61
2022/12/10 04:41:25;;;;;;;;;;;-0.10;99.90;;;;;;5052696;28;19915;-60
2022/12/10 04:43:52;;;;;;;;;;;0.00;99.90;;;;;;5052527;28;20522;-61
2022/12/10 04:46:17;;;;;;;;;;;0.00;99.90;;;;;;5047618;28;20511;-58
2022/12/10 04:48:43;;;;;;;;;;;-0.10;99.90;;;;;;5052425;28;19913;-58
2022/12/10 04:51:08;;;;;;;;;;;-0.10;99.90;;;;;;5050677;28;19920;-60
2022/12/10 04:53:33;;;;;;;;;;;-0.20;99.90;;;;;;5051304;28;19959;-59
2022/12/10 04:56:00;;;;;;;;;;;-0.20;99.90;;;;;;5052225;28;19916;-60
2022/12/10 04:58:30;;;;;;;;;;;-0.20;99.90;;;;;;5051347;28;19912;-62
2022/12/10 05:01:02;;;;;;;;;;;-0.20;99.90;;;;;;5051566;28;19916;-60
2022/12/10 05:03:28;;;;;;;;;;;-0.20;99.90;;;;;;5051947;28;20038;-62
2022/12/10 05:05:53;;;;;;;;;;;-0.20;99.90;;;;;;5052405;28;19975;-62
2022/12/10 05:08:19;;;;;;;;;;;-0.20;99.90;;;;;;5051003;28;19917;-61
2022/12/10 05:10:44;;;;;;;;;;;-0.20;99.90;;;;;;5045202;28;19913;-60
2022/12/10 05:13:10;;;;;;;;;;;-0.20;99.90;;;;;;5046885;28;19948;-60
2022/12/10 05:15:37;;;;;;;;;;;-0.20;99.90;;;;;;5051222;28;19971;-60
2022/12/10 05:18:03;;;;;;;;;;;-0.20;99.90;;;;;;5052681;28;19909;-60
2022/12/10 05:20:28;;;;;;;;;;;-0.20;99.90;;;;;;5051536;28;19995;-61
2022/12/10 05:25:52;;;;;;;;;;;-0.20;99.90;;;;;;5051880;28;19959;-61
2022/12/10 05:28:21;;;;;;;;;;;-0.10;99.90;;;;;;5064017;22;19968;-64
2022/12/10 05:30:46;;;;;;;;;;;-0.10;99.90;;;;;;5023810;28;19925;-61
2022/12/10 05:33:12;;;;;;;;;;;-0.10;99.90;;;;;;5030507;28;19944;-62
2022/12/10 05:35:37;;;;;;;;;;;-0.10;99.90;;;;;;5026409;28;19956;-62
2022/12/10 05:38:03;;;;;;;;;;;-0.10;99.90;;;;;;5024926;28;19968;-61
2022/12/10 05:40:28;;;;;;;;;;;0.00;99.90;;;;;;5026453;28;20293;-62
2022/12/10 05:42:54;;;;;;;;;;;0.00;99.90;;;;;;5029452;28;19928;-62
2022/12/10 05:45:19;;;;;;;;;;;0.00;99.90;;;;;;5030032;28;20327;-60
2022/12/10 05:47:45;;;;;;;;;;;0.00;99.90;;;;;;5026853;28;19920;-62
2022/12/10 05:50:10;;;;;;;;;;;0.00;99.90;;;;;;5030066;28;19917;-62
2022/12/10 05:52:35;;;;;;;;;;;0.10;99.90;;;;;;5028489;28;20004;-62
2022/12/10 05:55:01;;;;;;;;;;;0.00;99.90;;;;;;5030436;28;19963;-60
2022/12/10 05:57:26;;;;;;;;;;;0.10;99.90;;;;;;5030700;28;19920;-62
2022/12/10 05:59:52;;;;;;;;;;;0.10;99.90;;;;;;5029830;28;19912;-62
2022/12/10 06:02:17;;;;;;;;;;;0.10;99.90;;;;;;5024936;28;20374;-62
2022/12/10 06:04:43;;;;;;;;;;;0.20;99.90;;;;;;5018179;28;20315;-62
2022/12/10 06:07:08;;;;;;;;;;;0.30;99.90;;;;;;5020646;28;19967;-62
2022/12/10 06:09:33;;;;;;;;;;;0.20;99.90;;;;;;5019615;28;19918;-62
2022/12/10 06:11:59;;;;;;;;;;;0.30;99.90;;;;;;5021893;28;19925;-62
2022/12/10 06:14:24;;;;;;;;;;;0.30;99.90;;;;;;5023486;28;19951;-62
2022/12/10 06:16:50;;;;;;;;;;;0.30;99.90;;;;;;5026329;28;20377;-61
2022/12/10 06:19:15;;;;;;;;;;;0.30;99.90;;;;;;5021730;28;19916;-61
2022/12/10 06:21:41;;;;;;;;;;;0.30;99.90;;;;;;5023329;28;19921;-62
2022/12/10 06:24:06;;;;;;;;;;;0.30;99.90;;;;;;5025154;28;19996;-62
2022/12/10 06:26:32;;;;;;;;;;;0.30;99.90;;;;;;5024071;28;19967;-62
2022/12/10 06:28:57;;;;;;;;;;;0.30;99.90;;;;;;5019695;28;19917;-62
2022/12/10 06:31:23;;;;;;;;;;;0.20;99.90;;;;;;5017331;28;20390;-61
2022/12/10 06:33:49;;;;;;;;;;;0.10;99.90;;;;;;5022402;28;19913;-60
2022/12/10 06:36:15;;;;;;;;;;;0.10;99.90;;;;;;5026813;28;19920;-62
2022/12/10 06:38:40;;;;;;;;;;;0.10;99.90;;;;;;5021996;28;20000;-62
2022/12/10 06:41:07;;;;;;;;;;;0.10;99.90;;;;;;5022715;28;20043;-62
2022/12/10 06:43:33;;;;;;;;;;;0.10;99.90;;;;;;5020113;28;19921;-62
2022/12/10 06:45:58;;;;;;;;;;;0.10;99.90;;;;;;5020637;28;19917;-62
2022/12/10 06:48:24;;;;;;;;;;;0.20;99.90;;;;;;5025704;28;19921;-62
2022/12/10 06:50:49;;;;;;;;;;;0.10;99.90;;;;;;5028794;28;19913;-63
2022/12/10 06:53:15;;;;;;;;;;;0.10;99.90;;;;;;5029205;28;19913;-62
2022/12/10 06:55:40;;;;;;;;;;;0.10;99.90;;;;;;5029649;28;19996;-62
2022/12/10 06:58:06;;;;;;;;;;;0.20;99.90;;;;;;5033916;28;20291;-62
2022/12/10 07:00:31;;;;;;;;;;;0.30;99.90;;;;;;5030716;28;19917;-62
2022/12/10 07:02:57;;;;;;;;;;;0.30;99.90;;;;;;5003643;28;19924;-61
2022/12/10 07:05:22;;;;;;;;;;;0.30;99.90;;;;;;5032531;28;20385;-61
2022/12/10 07:07:48;;;;;;;;;;;0.20;99.90;;;;;;5032441;28;20385;-62
2022/12/10 07:10:13;;;;;;;;;;;0.30;99.90;;;;;;5032904;28;19909;-62
2022/12/10 07:12:39;;;;;;;;;;;0.20;99.90;;;;;;5033750;28;20000;-60
2022/12/10 07:15:04;;;;;;;;;;;0.10;99.90;;;;;;5029301;28;19970;-61
2022/12/10 07:17:30;;;;;;;;;;;0.10;99.90;;;;;;5032836;28;19913;-62
2022/12/10 07:19:55;;;;;;;;;;;0.10;99.90;;;;;;5031232;28;19923;-62
2022/12/10 07:22:21;;;;;;;;;;;0.20;99.90;;;;;;5030715;28;19994;-62
2022/12/10 07:24:48;;;;;;;;;;;0.20;99.90;;;;;;5029477;28;19975;-62
2022/12/10 07:27:13;;;;;;;;;;;0.20;99.90;;;;;;5033442;28;19968;-61
2022/12/10 07:29:38;;;;;;;;;;;0.20;99.90;;;;;;5029803;28;19967;-62
2022/12/10 07:32:04;;;;;;;;;;;0.20;99.90;;;;;;5030627;28;19924;-62
2022/12/10 07:34:29;;;;;;;;;;;0.10;99.90;;;;;;5032674;28;19913;-61
2022/12/10 07:36:55;;;;;;;;;;;0.10;99.90;;;;;;5028505;28;21751;-61
2022/12/10 07:39:20;;;;;;;;;;;0.20;99.90;;;;;;5025134;28;19909;-61
2022/12/10 07:41:52;;;;;;;;;;;0.10;99.90;;;;;;5020949;28;19966;-62
2022/12/10 07:44:22;;;;;;;;;;;0.10;99.90;;;;;;5029275;28;19960;-60
2022/12/10 07:46:48;;;;;;;;;;;0.10;99.90;;;;;;5032041;28;20012;-58
2022/12/10 07:49:14;;;;;;;;;;;0.20;99.90;;;;;;5019069;28;19909;-60
2022/12/10 07:51:39;;;;;;;;;;;0.20;99.90;;;;;;5022183;28;20001;-61
2022/12/10 07:54:04;;;;;;;;;;;0.20;99.90;;;;;;5023938;28;19909;-62
2022/12/10 07:56:30;;;;;;;;;;;0.20;99.90;;;;;;5026205;28;19913;-60
2022/12/10 07:58:56;;;;;;;;;;;0.20;99.90;;;;;;5027416;28;19919;-61
2022/12/10 08:01:25;;;;;;;;;;;0.20;99.90;;;;;;5018629;28;20003;-63
2022/12/10 08:03:50;;;;;;;;;;;0.20;99.90;;;;;;5030554;28;19913;-62
2022/12/10 08:06:18;;;;;;;;;;;0.30;99.90;;;;;;5019785;28;20290;-62
2022/12/10 08:08:43;;;;;;;;;;;0.20;99.90;;;;;;5024111;28;19995;-62
2022/12/10 08:11:09;;;;;;;;;;;0.20;99.90;;;;;;5019873;28;20382;-62
2022/12/10 08:13:35;;;;;;;;;;;0.20;99.90;;;;;;5020779;28;20370;-62
2022/12/10 08:16:05;;;;;;;;;;;0.30;99.90;;;;;;5021721;28;20477;-62
2022/12/10 08:18:31;;;;;;;;;;;0.30;99.90;;;;;;5025883;28;19917;-62
2022/12/10 08:20:57;;;;;;;;;;;0.40;99.90;;;;;;5020877;28;20363;-62
2022/12/10 08:23:22;;;;;;;;;;;0.50;99.90;;;;;;5026890;28;20352;-62
2022/12/10 08:25:48;;;;;;;;;;;0.50;99.90;;;;;;5030346;28;19913;-61
2022/12/10 08:28:13;;;;;;;;;;;0.50;99.90;;;;;;5025490;28;19926;-62
2022/12/10 08:30:39;;;;;;;;;;;0.60;99.90;;;;;;5020656;28;20008;-61
2022/12/10 08:33:04;;;;;;;;;;;0.60;99.90;;;;;;5028274;28;19913;-61
2022/12/10 08:35:30;;;;;;;;;;;0.60;99.90;;;;;;5024895;28;19921;-62
2022/12/10 08:37:55;;;;;;;;;;;0.50;99.90;;;;;;5019234;28;20000;-60
2022/12/10 08:40:21;;;;;;;;;;;0.50;99.90;;;;;;5022142;28;20314;-61
2022/12/10 08:42:46;;;;;;;;;;;0.50;99.90;;;;;;5027333;28;19914;-61
2022/12/10 08:45:12;;;;;;;;;;;0.60;99.90;;;;;;5020391;28;19913;-60
2022/12/10 08:47:37;;;;;;;;;;;0.60;99.90;;;;;;5002246;28;19913;-60
2022/12/10 08:50:03;;;;;;;;;;;0.50;99.90;;;;;;5024306;28;19976;-60
2022/12/10 08:52:29;;;;;;;;;;;0.60;99.90;;;;;;5024115;28;19925;-61
2022/12/10 08:54:54;;;;;;;;;;;0.60;99.90;;;;;;5028321;28;20059;-58
2022/12/10 08:57:20;;;;;;;;;;;0.70;99.90;;;;;;5021403;28;20374;-60
2022/12/10 08:59:45;;;;;;;;;;;0.80;99.90;;;;;;5022102;28;19980;-62
2022/12/10 09:02:11;;;;;;;;;;;0.80;99.90;;;;;;5018171;28;19921;-61
2022/12/10 09:04:36;;;;;;;;;;;0.80;99.90;;;;;;5023274;28;19944;-60
2022/12/10 09:07:03;;;;;;;;;;;0.80;99.90;;;;;;5002224;28;19921;-61
2022/12/10 09:09:28;;;;;;;;;;;0.80;99.90;;;;;;5009323;28;19922;-61
2022/12/10 09:11:53;;;;;;;;;;;0.90;99.90;;;;;;5021194;28;20399;-61
2022/12/10 09:14:19;;;;;;;;;;;0.90;99.90;;;;;;5021672;28;19913;-60
2022/12/10 09:16:44;;;;;;;;;;;0.90;99.90;;;;;;5025172;28;20000;-59
2022/12/10 09:19:10;;;;;;;;;;;0.90;99.90;;;;;;5024152;28;20393;-60
2022/12/10 09:21:36;;;;;;;;;;;1.00;99.90;;;;;;5021222;28;19913;-60
2022/12/10 09:24:01;;;;;;;;;;;1.00;99.90;;;;;;5019983;28;19921;-60
2022/12/10 09:26:27;;;;;;;;;;;1.00;99.90;;;;;;5001115;28;19921;-61
2022/12/10 09:28:52;;;;;;;;;;;0.90;99.90;;;;;;5012441;28;20362;-61
2022/12/10 09:31:19;;;;;;;;;;;1.00;99.90;;;;;;5023166;28;19920;-60
2022/12/10 09:33:45;;;;;;;;;;;1.00;99.90;;;;;;5020427;28;20008;-61
2022/12/10 09:36:11;;;;;;;;;;;1.00;99.90;;;;;;5021767;28;20497;-60
2022/12/10 09:38:38;;;;;;;;;;;0.90;99.90;;;;;;5016588;28;19917;-60
2022/12/10 09:41:10;;;;;;;;;;;0.90;99.90;;;;;;5026576;28;19917;-61
2022/12/10 09:43:35;;;;;;;;;;;0.90;99.90;;;;;;5022638;28;19940;-61
2022/12/10 09:46:13;;;;;;;;;;;0.90;99.90;;;;;;5025342;28;19913;-61
2022/12/10 09:48:57;;;;;;;;;;;0.90;99.90;;;;;;5027284;28;20012;-61
2022/12/10 09:51:25;;;;;;;;;;;0.90;99.90;;;;;;5024561;28;19917;-61
2022/12/10 09:53:58;;;;;;;;;;;1.00;99.90;;;;;;5027597;28;19913;-61
2022/12/10 09:56:29;;;;;;;;;;;1.00;99.90;;;;;;5031079;28;19955;-61
2022/12/10 09:58:55;;;;;;;;;;;1.00;99.90;;;;;;5026133;28;19986;-61
2022/12/10 10:01:24;;;;;;;;;;;1.00;99.90;;;;;;5028179;28;19966;-61
2022/12/10 10:03:50;;;;;;;;;;;1.10;99.90;;;;;;5027189;28;19921;-61
2022/12/10 10:06:15;;;;;;;;;;;1.10;99.90;;;;;;5024161;28;20294;-61
2022/12/10 10:08:43;;;;;;;;;;;1.10;99.90;;;;;;5022149;28;19924;-62
2022/12/10 10:11:19;;;;;;;;;;;1.00;99.90;;;;;;5024115;28;19921;-60
2022/12/10 10:13:46;;;;;;;;;;;0.90;99.90;;;;;;5024647;28;19971;-61
2022/12/10 10:16:12;;;;;;;;;;;0.90;99.90;;;;;;5023827;28;20370;-62
2022/12/10 10:18:41;;;;;;;;;;;0.80;99.90;;;;;;5027064;28;19924;-61
2022/12/10 10:21:11;;;;;;;;;;;0.80;99.90;;;;;;5025071;28;19921;-62
2022/12/10 10:23:36;;;;;;;;;;;0.80;99.90;;;;;;5024128;28;19917;-61
2022/12/10 10:26:02;;;;;;;;;;;0.80;99.90;;;;;;5020868;28;19921;-62
2022/12/10 10:28:27;;;;;;;;;;;0.90;99.90;;;;;;5025944;28;19928;-60
2022/12/10 10:30:54;;;;;;;;;;;0.90;99.90;;;;;;5023532;28;19913;-61
2022/12/10 10:33:19;;;;;;;;;;;1.00;99.90;;;;;;5023810;28;19913;-59
2022/12/10 10:35:49;;;;;;;;;;;1.10;99.90;;;;;;5020242;28;19932;-61
2022/12/10 10:38:18;;;;;;;;;;;1.10;99.90;;;;;;5026968;28;20294;-61
2022/12/10 10:40:45;;;;;;;;;;;1.10;99.90;;;;;;5025146;28;20006;-62
2022/12/10 10:43:25;;;;;;;;;;;1.20;99.90;;;;;;5023711;28;20019;-63
2022/12/10 10:45:56;;;;;;;;;;;1.30;99.90;;;;;;5020326;28;19913;-63
2022/12/10 10:48:23;;;;;;;;;;;1.30;99.90;;;;;;5024925;28;19919;-62
2022/12/10 10:50:52;;;;;;;;;;;1.50;99.90;;;;;;5021366;28;20390;-61
2022/12/10 10:53:25;;;;;;;;;;;1.40;99.90;;;;;;5021185;28;19975;-62
2022/12/10 10:55:52;;;;;;;;;;;1.50;99.90;;;;;;5024506;28;19913;-61
2022/12/10 10:58:21;;;;;;;;;;;1.50;99.90;;;;;;5021600;28;19909;-62
2022/12/10 11:01:13;;;;;;;;;;;1.40;99.90;;;;;;5026039;28;20454;-61
2022/12/10 11:03:45;;;;;;;;;;;1.40;99.90;;;;;;5024360;28;19996;-62
2022/12/10 11:06:12;;;;;;;;;;;1.60;99.90;;;;;;5024609;28;20462;-63
2022/12/10 11:08:39;;;;;;;;;;;1.60;99.90;;;;;;5018399;28;20009;-62
2022/12/10 11:11:06;;;;;;;;;;;1.60;99.90;;;;;;5000191;28;19917;-62
2022/12/10 11:13:35;;;;;;;;;;;1.60;99.90;;;;;;5021827;28;19913;-61
2022/12/10 11:16:24;;;;;;;;;;;1.70;99.90;;;;;;5019158;28;20543;-62
2022/12/10 11:19:04;;;;;;;;;;;1.70;99.90;;;;;;5006295;28;19913;-62
2022/12/10 11:21:34;;;;;;;;;;;1.80;99.90;;;;;;5019500;28;19972;-62
2022/12/10 11:24:00;;;;;;;;;;;1.80;99.90;;;;;;5023467;28;19920;-62
2022/12/10 11:26:52;;;;;;;;;;;1.70;99.90;;;;;;5016183;28;19910;-61
2022/12/10 11:32:10;;;;;;;;;;;1.40;99.90;;;;;;5090533;22;19931;-57
2022/12/10 11:35:05;;;;;;;;;;;1.50;99.90;;;;;;5072871;28;19992;-53
2022/12/10 11:37:32;;;;;;;;;;;1.50;99.90;;;;;;5061243;28;19936;-57
2022/12/10 11:39:57;;;;;;;;;;;1.40;99.90;;;;;;5071371;28;19920;-54
2022/12/10 11:42:42;;;;;;;;;;;1.30;99.90;;;;;;5078070;28;19962;-58
2022/12/10 11:45:13;;;;;;;;;;;1.30;99.90;;;;;;5086949;28;19928;-57
2022/12/10 11:47:57;;;;;;;;;;;1.30;99.90;;;;;;5089605;28;19916;-56
2022/12/10 11:50:22;;;;;;;;;;;1.50;99.90;;;;;;5072989;28;20033;-57
2022/12/10 11:53:00;;;;;;;;;;;1.70;99.90;;;;;;5071875;28;20497;-58
2022/12/10 11:55:43;;;;;;;;;;;1.70;99.90;;;;;;5053729;28;20402;-56
2022/12/10 11:58:17;;;;;;;;;;;1.70;99.90;;;;;;5075986;28;20003;-56
2022/12/10 12:00:58;;;;;;;;;;;1.70;99.90;;;;;;5077248;28;19920;-56
2022/12/10 12:03:42;;;;;;;;;;;1.80;99.90;;;;;;5054071;28;19920;-57
2022/12/10 12:06:07;;;;;;;;;;;1.90;99.90;;;;;;5070215;28;20243;-57
2022/12/10 12:08:33;;;;;;;;;;;1.80;99.90;;;;;;5071955;28;19963;-57
2022/12/10 12:11:11;;;;;;;;;;;1.90;99.90;;;;;;5071512;28;19913;-51
2022/12/10 12:13:55;;;;;;;;;;;2.00;99.90;;;;;;5071320;28;19916;-56
2022/12/10 12:16:44;;;;;;;;;;;2.30;99.90;;;;;;5077196;28;19916;-56
2022/12/10 12:19:10;;;;;;;;;;;2.40;99.90;;;;;;5064341;28;19973;-56
2022/12/10 12:21:36;;;;;;;;;;;2.40;99.90;;;;;;5068747;28;20577;-56
2022/12/10 12:24:04;;;;;;;;;;;2.10;99.90;;;;;;5071065;28;19951;-56
2022/12/10 12:26:31;;;;;;;;;;;2.10;99.90;;;;;;5058041;28;19959;-56
2022/12/10 12:29:12;;;;;;;;;;;2.40;99.90;;;;;;5078138;28;19923;-55
2022/12/10 12:31:40;;;;;;;;;;;2.40;99.90;;;;;;5075354;28;20369;-56
2022/12/10 12:34:24;;;;;;;;;;;2.30;99.90;;;;;;5074059;28;20380;-57
2022/12/10 12:36:50;;;;;;;;;;;2.50;99.90;;;;;;5074626;28;19990;-58
2022/12/10 12:39:28;;;;;;;;;;;2.40;99.90;;;;;;5064875;28;19912;-57
2022/12/10 12:42:00;;;;;;;;;;;2.30;99.90;;;;;;5064310;28;20402;-56
2022/12/10 12:44:31;;;;;;;;;;;2.00;99.90;;;;;;5069010;28;19912;-54
2022/12/10 12:47:01;;;;;;;;;;;2.00;99.90;;;;;;5054990;28;19916;-57
2022/12/10 12:49:26;;;;;;;;;;;1.90;99.90;;;;;;5071065;28;20011;-56
2022/12/10 12:52:11;;;;;;;;;;;2.00;99.90;;;;;;5067815;28;21732;-56
2022/12/10 12:54:36;;;;;;;;;;;2.10;99.90;;;;;;5064822;28;19975;-56
2022/12/10 12:57:05;;;;;;;;;;;2.10;99.90;;;;;;5064699;28;19935;-55
2022/12/10 12:59:49;;;;;;;;;;;2.10;99.90;;;;;;5068309;28;19932;-57
2022/12/10 13:02:26;;;;;;;;;;;2.00;99.90;;;;;;5063336;28;19959;-56
2022/12/10 13:04:52;;;;;;;;;;;2.00;99.90;;;;;;5068078;28;20302;-55
2022/12/10 13:07:18;;;;;;;;;;;2.00;99.90;;;;;;5073647;28;19909;-57
2022/12/10 13:09:47;;;;;;;;;;;2.00;99.90;;;;;;5064789;28;19939;-55
2022/12/10 13:12:30;;;;;;;;;;;1.90;99.90;;;;;;5067379;28;19939;-57
2022/12/10 13:14:58;;;;;;;;;;;2.00;99.90;;;;;;5058750;28;19985;-56
2022/12/10 13:17:34;;;;;;;;;;;1.90;99.90;;;;;;5062277;28;19917;-56
2022/12/10 13:20:18;;;;;;;;;;;1.90;99.90;;;;;;5062737;28;19919;-57
2022/12/10 13:22:54;;;;;;;;;;;1.70;99.90;;;;;;5059495;28;20456;-54
2022/12/10 13:25:36;;;;;;;;;;;1.80;99.90;;;;;;5067833;28;19927;-56
2022/12/10 13:28:16;;;;;;;;;;;2.00;99.90;;;;;;5061463;28;19940;-52
2022/12/10 13:30:41;;;;;;;;;;;2.10;99.90;;;;;;5060635;28;19928;-57
2022/12/10 13:33:15;;;;;;;;;;;2.30;99.90;;;;;;5064824;28;20007;-57
2022/12/10 13:35:49;;;;;;;;;;;2.30;99.90;;;;;;5070527;28;19977;-55
2022/12/10 13:38:22;;;;;;;;;;;2.50;99.90;;;;;;5068573;28;19917;-54
2022/12/10 13:46:25;;;;;;;;;;;2.50;99.90;;;;;;5063791;28;20036;-55
2022/12/10 13:48:52;;;;;;;;;;;2.60;99.90;;;;;;5062912;28;20090;-53
2022/12/10 13:51:25;;;;;;;;;;;2.60;99.90;;;;;;5072474;28;19920;-53
2022/12/10 13:54:03;;;;;;;;;;;2.40;99.90;;;;;;5074351;28;19962;-55
2022/12/10 13:56:39;;;;;;;;;;;2.40;99.90;;;;;;5072527;28;20310;-57
2022/12/10 13:59:13;;;;;;;;;;;2.40;99.90;;;;;;5067564;28;19916;-56
2022/12/10 14:01:52;;;;;;;;;;;2.30;99.90;;;;;;5069502;28;19999;-54
2022/12/10 14:04:26;;;;;;;;;;;2.30;99.90;;;;;;5067923;28;19948;-55
2022/12/10 14:06:52;;;;;;;;;;;2.30;99.90;;;;;;5073540;28;19966;-55
2022/12/10 14:09:17;;;;;;;;;;;2.20;99.90;;;;;;5063020;28;20328;-59
2022/12/10 14:11:47;;;;;;;;;;;2.20;99.90;;;;;;5071020;28;19925;-55
2022/12/10 14:14:17;;;;;;;;;;;2.20;99.90;;;;;;5073620;28;19912;-57
2022/12/10 14:16:43;;;;;;;;;;;2.30;99.90;;;;;;5070936;28;20035;-55
2022/12/10 14:19:13;;;;;;;;;;;2.30;99.90;;;;;;5063077;28;19999;-58
2022/12/10 14:21:40;;;;;;;;;;;2.30;99.90;;;;;;5072191;28;19913;-56
2022/12/10 14:24:24;;;;;;;;;;;2.30;99.90;;;;;;5074549;28;19913;-57
2022/12/10 14:26:55;;;;;;;;;;;2.30;99.90;;;;;;5067227;28;19967;-55
2022/12/10 14:29:21;;;;;;;;;;;2.30;99.90;;;;;;5072003;28;19951;-56
2022/12/10 14:31:48;;;;;;;;;;;2.30;99.90;;;;;;5066482;28;19940;-56
2022/12/10 14:34:15;;;;;;;;;;;2.40;99.90;;;;;;5070214;28;19916;-57
2022/12/10 14:36:47;;;;;;;;;;;2.30;99.90;;;;;;5072493;28;20344;-55
2022/12/10 14:39:14;;;;;;;;;;;2.20;99.90;;;;;;5058743;28;20389;-55
2022/12/10 14:41:40;;;;;;;;;;;2.20;99.90;;;;;;5062610;28;19950;-55
2022/12/10 14:44:06;;;;;;;;;;;2.10;99.90;;;;;;5066829;28;20365;-54
2022/12/10 14:46:31;;;;;;;;;;;2.10;99.90;;;;;;5065347;28;19909;-56
2022/12/10 14:48:57;;;;;;;;;;;2.00;99.90;;;;;;5066390;28;19913;-54
2022/12/10 14:51:25;;;;;;;;;;;2.00;99.90;;;;;;5067637;28;19916;-53